skip to main content

Salvage Dealers List

Click on any column heading to sort by that column or use the search field below to enter search terms.

Salvage Dealer List

Click on a Business Name for more detailed information about that dealer.

Business NamePhonePhysical AddressCityZipDealerIDLicense NumberExpires
ADEVICTOR VENTURES(281) 745-811111450 BISSONNET #208HOUSTON77099387321012387322016-09-11 00:00:00
ADEVICTOR VENTURES(281) 745-811111450 BISSONNET #208HOUSTON77099387321016387322016-07-09 00:00:00
ADINASHENA MOTORS(469) 366-99273423 CEDAR CREEK LANESACHSE75048409490576409492016-08-29 00:00:00
ADJEI CAB SERVICES(682) 559-24161619 W DIVISION ST SUITE AARLINGTON76012582932202582932017-01-26 00:00:00
ADL SERVICES(936) 635-7804428 DONNA DRLUFKIN75904550550032550552016-09-15 00:00:00
ADOK AUTO(832) 643-860913710 FLORENCE RDSUGAR LAND77498536701016536702017-03-25 00:00:00
ADOLFO Q GUEVARA(956) 774-30852409 GERONIMO DRLAREDO78040554662405554662016-11-13 00:00:00
ADOLFO SQUARE INC(956) 383-4991515 N. FM 1015PROGRESO78579526741085526742016-09-09 00:00:00
ADOM MOTORS(512) 351-300512613 JAMES POLK STMANOR78653477982276477982016-08-12 00:00:00
ADONAI AUTO SALES(832) 794-60535230 SAN PABLO GARDENSHOUSTON77045570931012570932016-07-14 00:00:00
ADONAI AUTO SALES(832) 794-60535230 SAN PABLO GARDENSHOUSTON77045570931016570932016-07-14 00:00:00
ADONYS AUTO SALES(713) 972-47696941 ROOK BLVDHOUSTON77087567431016567432016-06-29 00:00:00
ADRIANA AUTO SALES(956) 739-19112213 SALTILLO STHIDALGO78557524631082524632016-08-07 00:00:00
ADRIANA AUTO SALES(956) 739-19112213 SALTILLO STHIDALGO78557524631086524632016-08-07 00:00:00
ADVANCE AUTO GROUP(832) 655-58711938 HAVNER LNHOUSTON77093559491012559492017-02-18 00:00:00
ADVANCE AUTO GROUP(281) 741-39871938 HAVNER LNHOUSTON77093559491012559492017-02-18 00:00:00
ADVANCE AUTO SALES(832) 868-18307801 MANCHESTER STHOUSTON77012506271012506272016-10-17 00:00:00
ADVANCE AUTO SALES(832) 868-18307801 MANCHESTER STHOUSTON77012506271016506272016-10-17 00:00:00
ADVANCE AUTOS(806) 291-87871505 N COLUMBIAPLAINVIEW79072436600952436602016-12-03 00:00:00
ADVANCED CAR CONNECTION(936) 223-92301271 FM 1988 EGOODRICH77335480161876480162016-09-19 00:00:00
ADVANCED ENTERPRISES INC(832) 660-10003109 JEANETTA STHOUSTON77063571741012571742016-07-27 00:00:00
ADVANCED ENTERPRISES INC(713) 589-33223109 JEANETTA STHOUSTON77063571741012571742016-07-27 00:00:00
ADVANCED POWER AUTO SALES(936) 371-76757723 S. US HIGHWAY 59NACOGDOCHES75964566021742566022017-05-12 00:00:00
ADVANCED POWER AUTO SALES(936) 371-76757723 S. US HIGHWAY 59NACOGDOCHES75964566021746566022017-05-12 00:00:00
ADVANTAGE(832) 330-62991308 NORWOOD STDEER PARK77536499061012499062016-06-22 00:00:00
ADVANTAGE AUTO GLASS(903) 243-07773508 HWY 154 SOUTHSULPHUR SPRINGS75482549721126549722016-09-19 00:00:00
ADVANTAGE AUTO REMARKETING(972) 996-5524811 BETTERTON CIRCLEDALLAS75203547630572547632016-07-24 00:00:00
ADVANTAGE AUTO SALES(817) 536-00403309 MANSFIELD HWYFORT WORTH761196832202006832017-10-30 00:00:00
ADVANTAGE AUTO SALES(817) 536-00403309 MANSFIELD HWYFORT WORTH761196832206006832017-04-22 00:00:00
ADVANTAGE AUTO SALES OF WICHITA FALLS(940) 689-00012452 ARENA RD.WITCHITA FALLS76310483972435483972016-11-21 00:00:00
ADVANTAGE AUTOMOBILE BODY PARTS INC(817) 808-75408001 JACKSBORO HWYFT WORTH7613570572206070572016-10-31 00:00:00
ADVANTAGE HOUSTON MOTORS LLC(281) 250-508612822 MCNAIR STHOUSTON77015416631012416632017-03-04 00:00:00
ADVANTAGE HOUSTON MOTORS LLC(281) 250-508612822 MCNAIR STHOUSTON77015416631016416632017-03-04 00:00:00
ADVANTAGE SALVAGE AND AUTO PARTS LLC(361) 289-50005330 AGNES STCORPUS CHRISTI78405331731782331732016-09-17 00:00:00
ADVENTURE AUTO(936) 634-17001709 WEST FRANK AVELUFKIN75904411130032411132016-10-03 00:00:00
ADVENTURE AUTO(936) 634-17001709 WEST FRANK AVELUFKIN75904411130036411132016-08-22 00:00:00
ADWAJ IMPORT EXPORT(832) 620-633811845 ORMANDY STHOUSTON77035418601012418602017-06-06 00:00:00
ADWAJ IMPORT EXPORT(832) 620-633811845 ORMANDY STHOUSTON77035418601016418602017-06-06 00:00:00
AERO AUTO SALES(817) 808-84401930 MICHIGAN AVEDALLAS75216433250572433252016-10-14 00:00:00
AERO AUTO SALES(817) 808-84401930 MICHIGAN AVEDALLAS75216433250576433252016-10-14 00:00:00
AEROMARINE ENTERPRISE(832) 279-142115827 BELLAIRE BOULEVARDHOUSTON77083358351016358352017-02-01 00:00:00
AEROPLACE SERVICES INCORPORATED(469) 964-187515 FIELDER RDDENISON75020526470912526472016-09-04 00:00:00
AEROPLACE SERVICES INCORPORATED(469) 964-187515 FIELDER RDDENISON75020526470916526472016-11-09 00:00:00
AFFORDABLE AUTO REPAIR(940) 458-198711721 MARION RDSANGER76266479290616479292016-09-19 00:00:00
AFFORDABLE CAR SALE(214) 893-66585206 HIGHWAY 380PRINCETON75407589200436589202017-05-10 00:00:00
AFFORDABLE CARS AND SERVICES(832) 630-25705710 JAMES PLACEHOUSTON77085534221012534222017-01-17 00:00:00
AFFORDABLE SALES(281) 987-03005204 NORTHINGTONHOUSTON77039308371016308372016-07-01 00:00:00
AFRICAN GIFT STORE(757) 342-89272801 WALNUT BEND LN #55HOUSTON77042443101012443102016-08-09 00:00:00
AFRICANMIRROR WORLD WIDE(214) 587-52406805 SOUTHGATE DR.SACHSE75048569270576569272016-06-24 00:00:00
AG AUTO SALES(713) 870-0875111 BLUE BELLHOUSTON77037458471012458472016-10-27 00:00:00

Copyright © 2016 Texas Department of Motor Vehicles. All rights reserved. - 4000 Jackson Ave, Austin, TX 78731